Impacts TAF Board
For situational awareness. Not to be used for flight planning purposes.
IDs:

KPDX - Portland Intl Arpt, OR, US

Issued at 1130 UTC 10 Aug 2022
Updated at 1344 UTC 10 Aug 2022
Potential Impact None Slight Moderate High
Time1253Z 10/14Z 10/15Z 10/16Z 10/17Z 10/18Z 10/19Z 10/20Z 10/21Z 10/22Z 10/23Z 11/00Z 11/01Z 11/02Z>>
Type OBS PRVL PRVL PRVL PRVL PRVL PRVL PRVL PRVL PRVL PRVL PRVL PRVL PRVL
VIS 10 >6 >6 >6 >6 >6 >6 >6 >6 >6 >6 >6 >6 >6
CIG 18 25 25 25 25 40 40 40 -- -- -- -- -- --
Cover OVC OVC OVC OVC OVC OVC BKN BKN SCT SCT SCT SCT SCT SCT
FltCat MVFR MVFR MVFR MVFR MVFR VFR VFR VFR VFR VFR VFR VFR VFR VFR
WX -- -- -- -- -- -- -- -- -- -- -- -- -- --
WDir 180 180 180 180 180 200 260 260 290 290 290 290 290 290
WSpd 7 8 8 8 8 5 5 5 7 7 7 7 7 7
WGst -- -- -- -- -- -- -- -- -- -- -- -- -- --
WSHgt -- -- -- -- -- -- -- -- -- -- -- -- -- --
WSDir -- -- -- -- -- -- -- -- -- -- -- -- -- --
WSSpd -- -- -- -- -- -- -- -- -- -- -- -- -- --
Raw TAF
KPDX 101130Z 1012/1112 18008KT P6SM BKN025 OVC035
  FM101800 20005KT P6SM SCT025 OVC040
  FM101900 26005KT P6SM BKN040
  FM102100 29007KT P6SM SCT045
  FM110600 VRB03KT P6SM SCT250


Raw METAR
KPDX 101253Z 18007KT 10SM OVC018 18/13 A3001 RMK AO2 SLP162 T01830133
KPDX 101153Z 19009KT 10SM OVC018 18/13 A3001 RMK AO2 SLP159 T01830133 10244 20183 51015
KPDX 101053Z 18006G16KT 10SM OVC026 18/13 A2999 RMK AO2 SLP154 T01830133

METAR Board
Radar Display
Forecast Discussion
For situational awareness. Not to be used for flight planning purposes.